Time;durP1;ratioP1;P1;durP2;ratioP2;P2;SDS_P1;SDS_P2;PMS_P1;PMS_P2;Temp;Humidity;BMP_temperature;BMP_pressure;BME280_temperature;BME280_humidity;BME280_pressure;Samples;Min_cycle;Max_cycle;Signal;HPM_P1;HPM_P2
2023/05/28 00:00:01;;;;;;;6.10;3.70;;;19.40;41.90;;;;;;5028972;28;20442;-83
2023/05/28 00:02:28;;;;;;;6.67;3.80;;;19.30;42.60;;;;;;5027850;28;20454;-83
2023/05/28 00:04:55;;;;;;;8.40;3.97;;;19.30;42.60;;;;;;5010262;28;20528;-85
2023/05/28 00:07:24;;;;;;;4.10;3.23;;;19.30;42.50;;;;;;5001011;28;20536;-82
2023/05/28 00:09:51;;;;;;;7.00;4.40;;;19.30;42.40;;;;;;5026129;28;20765;-85
2023/05/28 00:12:18;;;;;;;6.60;3.43;;;19.30;42.10;;;;;;5016480;28;20802;-84
2023/05/28 00:14:45;;;;;;;10.00;5.20;;;19.30;42.30;;;;;;4994738;28;21188;-83
2023/05/28 00:17:14;;;;;;;8.27;3.90;;;19.30;42.60;;;;;;5018022;28;20529;-84
2023/05/28 00:19:41;;;;;;;9.30;3.80;;;19.20;42.40;;;;;;5017029;28;20476;-83
2023/05/28 00:22:08;;;;;;;6.57;3.20;;;19.20;42.70;;;;;;5016382;28;20466;-84
2023/05/28 00:24:35;;;;;;;4.23;3.00;;;19.10;42.60;;;;;;5011433;28;21046;-83
2023/05/28 00:27:02;;;;;;;5.50;3.37;;;19.10;42.40;;;;;;4996853;28;20548;-84
2023/05/28 00:29:30;;;;;;;5.50;4.30;;;19.10;42.60;;;;;;5017695;28;20556;-83
2023/05/28 00:31:57;;;;;;;12.23;3.77;;;19.10;42.50;;;;;;5034300;28;20520;-83
2023/05/28 00:34:26;;;;;;;5.00;3.80;;;19.00;42.70;;;;;;5036191;28;20478;-83
2023/05/28 00:36:53;;;;;;;7.43;3.47;;;18.90;42.80;;;;;;5011297;28;20462;-83
2023/05/28 00:39:21;;;;;;;5.67;4.07;;;18.90;43.10;;;;;;4998637;28;20447;-84
2023/05/28 00:41:48;;;;;;;4.50;3.77;;;18.90;43.60;;;;;;5011135;28;20461;-84
2023/05/28 00:44:16;;;;;;;6.87;4.30;;;18.80;43.20;;;;;;5025832;28;20463;-84
2023/05/28 00:46:46;;;;;;;5.67;4.07;;;18.80;43.10;;;;;;4998743;28;20461;-84
2023/05/28 00:49:13;;;;;;;6.93;4.03;;;18.80;42.90;;;;;;5001066;28;20458;-84
2023/05/28 00:51:42;;;;;;;11.47;5.20;;;18.80;42.90;;;;;;5007764;28;21215;-83
2023/05/28 00:54:09;;;;;;;7.03;4.50;;;18.70;42.90;;;;;;5010280;28;20525;-84
2023/05/28 00:56:36;;;;;;;4.47;4.03;;;18.60;42.80;;;;;;5014654;28;20465;-83
2023/05/28 00:59:04;;;;;;;7.63;4.33;;;18.60;43.10;;;;;;5007800;28;21019;-84
2023/05/28 01:01:33;;;;;;;7.73;3.90;;;18.60;43.10;;;;;;5026941;28;20542;-83
2023/05/28 01:04:01;;;;;;;6.03;4.43;;;18.60;43.00;;;;;;5008536;28;20459;-82
2023/05/28 01:06:29;;;;;;;4.70;3.40;;;18.50;43.20;;;;;;5012884;28;20442;-85
2023/05/28 01:08:58;;;;;;;6.23;4.30;;;18.40;43.60;;;;;;5024553;28;20453;-82
2023/05/28 01:11:26;;;;;;;8.27;4.13;;;18.40;44.20;;;;;;5026258;28;20463;-83
2023/05/28 01:13:55;;;;;;;7.07;4.43;;;18.40;44.40;;;;;;5016923;28;20983;-85
2023/05/28 01:16:22;;;;;;;6.07;4.63;;;18.30;45.20;;;;;;5011973;28;20457;-83
2023/05/28 01:18:49;;;;;;;8.23;4.27;;;18.30;45.40;;;;;;5009827;28;20562;-82
2023/05/28 01:21:17;;;;;;;7.00;4.80;;;18.20;45.60;;;;;;4997608;28;20485;-84
2023/05/28 01:23:47;;;;;;;9.70;4.40;;;18.10;45.90;;;;;;5017296;28;20532;-85
2023/05/28 01:26:16;;;;;;;6.00;4.30;;;18.10;46.00;;;;;;5039926;28;20445;-83
2023/05/28 01:28:45;;;;;;;6.37;3.83;;;18.10;46.20;;;;;;5026803;28;20529;-83
2023/05/28 01:31:14;;;;;;;7.20;4.70;;;18.10;46.50;;;;;;5001326;28;21080;-83
2023/05/28 01:33:42;;;;;;;7.83;3.97;;;18.10;47.10;;;;;;5016676;28;20473;-82
2023/05/28 01:36:12;;;;;;;8.90;4.00;;;18.00;46.40;;;;;;5009502;28;20534;-80
2023/05/28 01:38:43;;;;;;;7.43;4.60;;;17.80;46.00;;;;;;5016961;28;20541;-82
2023/05/28 01:41:12;;;;;;;6.67;4.20;;;17.80;45.70;;;;;;5010307;28;20446;-84
2023/05/28 01:43:40;;;;;;;10.07;3.93;;;17.80;45.90;;;;;;4990579;28;20475;-85
2023/05/28 01:46:07;;;;;;;7.40;4.40;;;17.60;46.00;;;;;;5007602;28;20451;-82
2023/05/28 01:48:35;;;;;;;4.90;3.83;;;17.60;46.20;;;;;;5006750;28;20445;-83
2023/05/28 01:51:02;;;;;;;6.40;3.70;;;17.50;46.20;;;;;;4988987;28;20507;-83
2023/05/28 01:53:30;;;;;;;7.40;3.93;;;17.50;46.10;;;;;;5012349;28;20450;-83
2023/05/28 01:55:57;;;;;;;7.00;4.00;;;17.50;46.30;;;;;;5016794;28;20473;-83
2023/05/28 01:58:26;;;;;;;8.53;4.17;;;17.50;46.30;;;;;;5001325;28;20806;-81
2023/05/28 02:01:04;;;;;;;8.27;4.10;;;17.50;46.30;;;;;;4989099;28;20443;-83
2023/05/28 02:03:31;;;;;;;5.30;3.57;;;17.50;47.00;;;;;;4994969;28;20560;-83
2023/05/28 02:05:58;;;;;;;8.90;4.57;;;17.40;48.00;;;;;;5008456;28;20451;-83
2023/05/28 02:08:25;;;;;;;7.07;4.37;;;17.20;48.10;;;;;;5009595;28;20866;-83
2023/05/28 02:10:53;;;;;;;6.90;4.50;;;17.30;48.10;;;;;;5025558;28;20455;-83
2023/05/28 02:13:20;;;;;;;5.97;4.40;;;17.30;48.20;;;;;;5024252;28;20454;-84
2023/05/28 02:15:48;;;;;;;8.43;4.97;;;17.30;48.40;;;;;;5015494;28;20480;-82
2023/05/28 02:18:16;;;;;;;10.47;5.77;;;17.30;48.50;;;;;;5016707;28;20508;-85
2023/05/28 02:20:43;;;;;;;9.20;4.97;;;17.30;48.70;;;;;;5022118;28;20959;-83
2023/05/28 02:23:10;;;;;;;5.73;4.20;;;17.30;48.70;;;;;;5000530;28;20442;-83
2023/05/28 02:25:37;;;;;;;7.53;4.70;;;17.30;48.80;;;;;;5007754;28;20457;-83
2023/05/28 02:28:04;;;;;;;6.47;4.50;;;17.20;48.80;;;;;;4991330;28;20545;-83
2023/05/28 02:30:31;;;;;;;4.93;3.67;;;17.20;48.20;;;;;;5027610;28;20813;-83
2023/05/28 02:33:00;;;;;;;5.90;4.10;;;17.20;48.00;;;;;;5024533;28;20839;-83
2023/05/28 02:35:27;;;;;;;8.83;4.70;;;17.10;48.30;;;;;;4994230;28;20505;-83
2023/05/28 02:37:53;;;;;;;9.97;3.80;;;17.10;48.40;;;;;;5011093;28;20474;-83
2023/05/28 02:40:21;;;;;;;6.40;4.07;;;17.10;48.50;;;;;;5022032;28;21168;-82
2023/05/28 02:42:49;;;;;;;7.10;4.00;;;17.00;48.50;;;;;;5020221;28;20453;-83
2023/05/28 02:45:16;;;;;;;11.73;3.97;;;17.00;48.60;;;;;;5014257;28;22511;-84
2023/05/28 02:47:43;;;;;;;6.60;4.20;;;16.90;48.10;;;;;;5005622;28;20458;-84
2023/05/28 02:50:11;;;;;;;7.60;3.63;;;16.80;47.80;;;;;;5008361;28;20454;-83
2023/05/28 02:52:56;;;;;;;7.63;3.77;;;16.70;48.00;;;;;;4990260;28;20445;-83
2023/05/28 02:55:23;;;;;;;6.03;4.23;;;16.70;48.10;;;;;;5001301;28;20509;-83
2023/05/28 02:57:52;;;;;;;5.50;4.20;;;16.60;48.30;;;;;;5008615;28;20464;-86
2023/05/28 03:00:19;;;;;;;7.27;4.60;;;16.60;48.60;;;;;;5007896;28;20447;-83
2023/05/28 03:02:47;;;;;;;6.77;4.40;;;16.60;49.10;;;;;;5040649;28;20481;-83
2023/05/28 03:05:16;;;;;;;5.53;4.20;;;16.60;49.20;;;;;;5009055;28;20462;-83
2023/05/28 03:07:43;;;;;;;11.47;5.03;;;16.60;49.30;;;;;;5009298;28;20461;-82
2023/05/28 03:10:10;;;;;;;6.20;4.30;;;16.60;49.40;;;;;;5000199;28;20450;-84
2023/05/28 03:12:37;;;;;;;6.30;4.13;;;16.60;49.40;;;;;;5005452;28;20462;-84
2023/05/28 03:15:05;;;;;;;6.07;4.30;;;16.60;49.40;;;;;;5009302;28;20482;-84
2023/05/28 03:17:34;;;;;;;6.93;4.83;;;16.60;49.50;;;;;;5018616;28;20508;-83
2023/05/28 03:20:02;;;;;;;5.30;4.10;;;16.60;49.40;;;;;;5012347;28;20537;-83
2023/05/28 03:22:30;;;;;;;6.43;4.33;;;16.50;49.70;;;;;;5011271;28;20446;-84
2023/05/28 03:24:57;;;;;;;5.90;4.00;;;16.50;49.50;;;;;;5036823;28;20553;-82
2023/05/28 03:27:25;;;;;;;4.07;3.67;;;16.50;49.30;;;;;;5030258;28;21394;-83
2023/05/28 03:29:52;;;;;;;10.90;4.23;;;16.30;49.30;;;;;;5015727;28;22263;-83
2023/05/28 03:32:46;;;;;;;7.83;4.17;;;16.20;49.40;;;;;;5025776;28;21247;-83
2023/05/28 03:35:13;;;;;;;10.13;3.97;;;16.20;49.20;;;;;;4992881;28;20488;-83
2023/05/28 03:37:41;;;;;;;6.60;4.60;;;16.20;49.20;;;;;;5011404;28;20529;-83
2023/05/28 03:40:09;;;;;;;6.47;3.97;;;16.20;49.60;;;;;;5028493;28;21002;-84
2023/05/28 03:42:36;;;;;;;7.23;4.60;;;16.20;49.90;;;;;;5009398;28;20680;-83
2023/05/28 03:45:05;;;;;;;6.17;3.97;;;16.20;50.10;;;;;;5025424;28;20484;-82
2023/05/28 03:47:32;;;;;;;7.50;5.23;;;16.10;51.40;;;;;;5033778;28;20439;-83
2023/05/28 03:50:00;;;;;;;7.07;4.60;;;16.10;50.70;;;;;;5010634;28;20526;-80
2023/05/28 03:52:29;;;;;;;8.27;4.33;;;16.20;50.50;;;;;;4997333;28;20464;-82
2023/05/28 03:54:57;;;;;;;13.40;5.23;;;16.20;50.50;;;;;;5018602;28;20473;-82
2023/05/28 03:57:25;;;;;;;12.30;4.93;;;16.20;50.40;;;;;;5015753;28;20449;-83
2023/05/28 03:59:55;;;;;;;5.70;4.23;;;16.20;50.20;;;;;;5001530;28;20458;-83
2023/05/28 04:02:23;;;;;;;8.63;4.93;;;16.20;49.90;;;;;;4994270;28;20446;-83
2023/05/28 04:04:50;;;;;;;7.97;4.20;;;16.20;50.10;;;;;;5024382;28;20470;-83
2023/05/28 04:07:17;;;;;;;6.17;5.00;;;16.20;50.10;;;;;;5010418;28;20617;-83
2023/05/28 04:09:44;;;;;;;7.00;4.80;;;16.20;50.60;;;;;;5007894;28;20981;-83
2023/05/28 04:12:12;;;;;;;10.03;5.07;;;16.20;51.50;;;;;;5001786;28;20446;-83
2023/05/28 04:14:40;;;;;;;8.00;4.63;;;16.20;51.70;;;;;;5001182;28;20492;-83
2023/05/28 04:17:08;;;;;;;10.20;4.73;;;16.10;51.40;;;;;;5009584;28;20972;-83
2023/05/28 04:19:35;;;;;;;9.03;4.20;;;16.20;50.80;;;;;;5010813;28;20469;-82
2023/05/28 04:22:02;;;;;;;7.50;4.40;;;16.20;50.60;;;;;;5017089;28;20915;-84
2023/05/28 04:24:29;;;;;;;7.07;4.43;;;16.30;50.80;;;;;;5016159;28;20489;-83
2023/05/28 04:26:56;;;;;;;11.23;5.10;;;16.30;51.40;;;;;;5017285;28;20462;-85
2023/05/28 04:29:28;;;;;;;8.50;4.60;;;16.30;51.10;;;;;;5028474;28;20500;-83
2023/05/28 04:31:55;;;;;;;8.10;4.83;;;16.30;51.50;;;;;;5012279;28;22463;-85
2023/05/28 04:34:24;;;;;;;10.60;4.97;;;16.40;51.10;;;;;;5010986;28;20580;-83
2023/05/28 04:36:52;;;;;;;5.37;3.83;;;16.30;51.00;;;;;;5009150;28;20473;-79
2023/05/28 04:39:20;;;;;;;10.83;5.00;;;16.30;51.80;;;;;;4995161;28;20488;-83
2023/05/28 04:41:48;;;;;;;10.00;4.53;;;16.20;52.00;;;;;;4998021;28;20458;-83
2023/05/28 04:44:16;;;;;;;7.60;4.40;;;16.30;51.90;;;;;;5013559;28;20555;-84
2023/05/28 04:46:45;;;;;;;8.00;5.30;;;16.30;52.10;;;;;;5007040;28;20805;-85
2023/05/28 04:49:12;;;;;;;5.47;4.50;;;16.30;52.30;;;;;;5002447;28;20538;-83
2023/05/28 04:51:39;;;;;;;7.13;3.93;;;16.30;52.50;;;;;;4999246;28;20494;-83
2023/05/28 04:54:06;;;;;;;8.50;4.47;;;16.30;52.70;;;;;;5010753;28;21010;-83
2023/05/28 04:56:34;;;;;;;7.43;4.60;;;16.30;52.50;;;;;;4994250;28;20465;-83
2023/05/28 04:59:04;;;;;;;7.83;4.70;;;16.20;52.90;;;;;;5026711;28;20450;-84
2023/05/28 05:01:32;;;;;;;12.00;4.80;;;16.30;52.80;;;;;;5035245;28;20511;-84
2023/05/28 05:04:01;;;;;;;6.07;4.20;;;16.30;52.70;;;;;;5009478;28;20560;-83
2023/05/28 05:06:30;;;;;;;7.03;4.60;;;16.40;52.80;;;;;;5027639;28;20449;-83
2023/05/28 05:08:57;;;;;;;6.50;3.93;;;16.40;53.00;;;;;;5016510;28;20543;-84
2023/05/28 05:11:25;;;;;;;4.87;4.30;;;16.40;53.00;;;;;;5016961;28;20461;-83
2023/05/28 05:13:53;;;;;;;11.87;5.43;;;16.30;53.60;;;;;;5010243;28;20493;-83
2023/05/28 05:16:20;;;;;;;5.90;4.27;;;16.40;52.90;;;;;;5017430;28;21172;-81
2023/05/28 05:18:47;;;;;;;7.00;4.43;;;16.40;53.10;;;;;;4991200;28;20541;-84
2023/05/28 05:21:15;;;;;;;10.10;5.40;;;16.30;53.10;;;;;;5023839;28;20832;-84
2023/05/28 05:23:42;;;;;;;7.50;4.10;;;16.30;53.30;;;;;;4992363;28;20486;-83
2023/05/28 05:26:12;;;;;;;7.93;5.50;;;16.30;53.70;;;;;;5007677;28;20839;-82
2023/05/28 05:28:39;;;;;;;6.93;4.50;;;16.40;53.40;;;;;;5025625;28;20493;-82
2023/05/28 05:31:06;;;;;;;7.00;4.77;;;16.40;53.20;;;;;;5008151;28;20563;-82
2023/05/28 05:33:33;;;;;;;7.37;5.10;;;16.40;53.40;;;;;;5027906;28;20477;-82
2023/05/28 05:36:22;;;;;;;9.50;5.17;;;16.40;53.40;;;;;;5016027;28;20471;-82
2023/05/28 05:39:18;;;;;;;8.40;5.37;;;16.50;53.80;;;;;;4997416;28;20462;-83
2023/05/28 05:42:06;;;;;;;6.50;4.80;;;16.80;53.70;;;;;;5023892;28;20454;-81
2023/05/28 05:44:39;;;;;;;7.67;4.33;;;16.80;53.50;;;;;;4996962;28;20482;-83
2023/05/28 05:47:08;;;;;;;6.90;4.87;;;16.70;53.80;;;;;;5010791;28;20445;-84
2023/05/28 05:49:36;;;;;;;6.73;4.93;;;16.90;53.20;;;;;;5023944;28;20482;-84
2023/05/28 05:52:06;;;;;;;7.47;4.40;;;17.20;53.00;;;;;;5010863;28;20450;-83
2023/05/28 05:54:37;;;;;;;11.97;4.93;;;17.30;52.20;;;;;;5014262;28;20476;-82
2023/05/28 05:57:05;;;;;;;8.13;5.47;;;17.00;52.50;;;;;;5017135;28;20480;-84
2023/05/28 05:59:33;;;;;;;7.87;5.20;;;16.90;52.90;;;;;;5016099;28;20461;-82
2023/05/28 06:02:01;;;;;;;11.60;5.50;;;16.80;53.00;;;;;;5001560;28;20446;-83
2023/05/28 06:04:31;;;;;;;10.07;5.40;;;16.90;53.60;;;;;;5000635;28;20504;-83
2023/05/28 06:07:18;;;;;;;11.13;5.50;;;17.00;53.40;;;;;;5007468;28;20826;-82
2023/05/28 06:09:55;;;;;;;9.07;5.37;;;17.00;52.70;;;;;;5024992;28;20537;-82
2023/05/28 06:12:26;;;;;;;7.63;5.20;;;17.10;52.80;;;;;;5025058;28;20443;-82
2023/05/28 06:14:52;;;;;;;12.63;5.73;;;17.10;52.90;;;;;;5023098;28;20474;-82
2023/05/28 06:17:20;;;;;;;9.07;4.90;;;17.20;52.60;;;;;;5016849;28;20571;-84
2023/05/28 06:19:49;;;;;;;5.63;4.20;;;17.20;52.20;;;;;;5008434;28;20462;-82
2023/05/28 06:22:16;;;;;;;11.17;4.70;;;17.30;51.30;;;;;;5017828;28;20457;-82
2023/05/28 06:24:45;;;;;;;8.67;5.10;;;17.30;51.30;;;;;;5007444;28;20614;-82
2023/05/28 06:27:12;;;;;;;6.93;4.70;;;17.40;50.90;;;;;;5000393;28;20539;-82
2023/05/28 06:29:41;;;;;;;10.23;4.43;;;17.40;51.90;;;;;;4999458;28;20461;-82
2023/05/28 06:32:08;;;;;;;9.80;4.60;;;17.50;51.80;;;;;;5012057;28;20887;-81
2023/05/28 06:34:35;;;;;;;7.43;4.30;;;17.60;51.60;;;;;;5025417;28;20470;-84
2023/05/28 06:37:02;;;;;;;9.17;4.80;;;17.80;51.90;;;;;;5011490;28;20971;-83
2023/05/28 06:39:29;;;;;;;8.87;4.60;;;18.00;51.80;;;;;;5016356;28;20463;-83
2023/05/28 06:41:58;;;;;;;8.70;5.20;;;18.20;50.60;;;;;;5032205;28;20461;-83
2023/05/28 06:44:41;;;;;;;7.33;4.80;;;18.40;51.20;;;;;;5009242;28;20473;-82
2023/05/28 06:47:11;;;;;;;7.80;4.60;;;18.70;50.80;;;;;;5009700;28;20453;-85
2023/05/28 06:49:38;;;;;;;6.80;4.43;;;19.00;50.20;;;;;;5018792;28;21377;-83
2023/05/28 06:52:06;;;;;;;8.43;3.93;;;19.30;50.10;;;;;;5006659;28;20449;-83
2023/05/28 06:54:33;;;;;;;6.83;4.30;;;19.60;49.80;;;;;;5028186;28;20546;-82
2023/05/28 06:57:02;;;;;;;17.07;4.87;;;19.50;48.00;;;;;;4995970;28;20469;-84
2023/05/28 06:59:38;;;;;;;7.27;4.30;;;19.40;48.50;;;;;;5036981;28;20442;-82
2023/05/28 07:02:31;;;;;;;8.20;4.23;;;19.50;48.00;;;;;;5012474;28;20534;-82
2023/05/28 07:05:25;;;;;;;8.93;3.90;;;19.80;48.00;;;;;;5025974;28;20524;-83
2023/05/28 07:07:54;;;;;;;7.00;3.77;;;20.20;47.10;;;;;;5025286;28;20441;-82
2023/05/28 07:10:21;;;;;;;9.13;3.80;;;20.10;47.50;;;;;;5024408;28;20442;-83
2023/05/28 07:12:50;;;;;;;7.90;3.37;;;20.40;48.00;;;;;;5018472;28;20577;-85
2023/05/28 07:15:17;;;;;;;6.43;4.13;;;20.50;46.70;;;;;;5010217;28;20482;-85
2023/05/28 07:17:45;;;;;;;6.33;4.60;;;20.30;46.60;;;;;;5009572;28;20836;-84
2023/05/28 07:20:13;;;;;;;7.60;4.80;;;20.30;47.10;;;;;;4996617;28;21234;-84
2023/05/28 07:22:49;;;;;;;9.27;4.23;;;20.40;47.40;;;;;;5004702;28;20460;-84
2023/05/28 07:25:16;;;;;;;5.87;3.60;;;20.80;47.20;;;;;;5012913;28;20513;-86
2023/05/28 07:27:43;;;;;;;9.13;4.17;;;21.10;46.60;;;;;;5027510;28;20819;-84
2023/05/28 07:30:13;;;;;;;5.37;3.30;;;21.30;45.20;;;;;;5000698;28;20450;-84
2023/05/28 07:32:40;;;;;;;5.60;3.40;;;21.30;45.70;;;;;;5017609;28;20465;-85
2023/05/28 07:35:08;;;;;;;15.40;3.93;;;21.50;44.90;;;;;;5010600;28;20466;-83
2023/05/28 07:37:35;;;;;;;6.73;3.80;;;21.50;44.60;;;;;;5013052;28;20461;-83
2023/05/28 07:40:05;;;;;;;10.87;4.80;;;21.50;44.60;;;;;;5018700;28;20454;-83
2023/05/28 07:42:33;;;;;;;10.30;3.67;;;21.70;44.50;;;;;;5016846;28;20516;-85
2023/05/28 07:45:03;;;;;;;7.60;4.53;;;21.90;44.20;;;;;;5018956;28;20469;-83
2023/05/28 07:47:32;;;;;;;9.23;3.90;;;22.00;43.60;;;;;;5028758;28;20441;-82
2023/05/28 07:49:59;;;;;;;6.20;3.63;;;22.20;44.30;;;;;;5018097;28;20442;-84
2023/05/28 07:52:42;;;;;;;5.90;3.47;;;22.30;43.00;;;;;;5021210;28;20503;-83
2023/05/28 07:55:09;;;;;;;10.40;4.47;;;22.30;43.10;;;;;;5006263;28;20491;-84
2023/05/28 07:57:38;;;;;;;8.07;4.00;;;22.50;44.40;;;;;;5017159;28;20463;-84
2023/05/28 08:00:10;;;;;;;6.30;4.33;;;22.50;43.10;;;;;;5016279;28;20960;-84
2023/05/28 08:02:54;;;;;;;6.53;3.87;;;22.30;43.00;;;;;;5017503;28;20804;-84
2023/05/28 08:05:29;;;;;;;8.17;4.37;;;22.30;42.70;;;;;;5019551;28;20480;-86
2023/05/28 08:07:56;;;;;;;4.10;3.20;;;22.30;42.90;;;;;;4998899;28;20455;-87
2023/05/28 08:10:23;;;;;;;7.27;3.60;;;22.30;43.10;;;;;;5018464;28;20471;-83
2023/05/28 08:12:50;;;;;;;4.70;4.00;;;22.40;42.50;;;;;;5031427;28;20450;-87
2023/05/28 08:15:18;;;;;;;6.87;3.47;;;22.50;42.50;;;;;;5018305;28;20569;-88
2023/05/28 08:17:45;;;;;;;10.20;3.70;;;22.90;43.00;;;;;;5022534;28;20473;-84
2023/05/28 08:20:17;;;;;;;8.03;3.77;;;23.10;40.70;;;;;;5028962;28;20454;-86
2023/05/28 08:22:54;;;;;;;9.83;4.80;;;23.00;40.00;;;;;;4999798;28;20540;-84
2023/05/28 08:25:21;;;;;;;11.23;3.67;;;23.20;40.00;;;;;;5010063;28;20501;-83
2023/05/28 08:27:51;;;;;;;6.90;4.17;;;23.10;40.90;;;;;;5005068;28;21522;-85
2023/05/28 08:30:18;;;;;;;6.00;3.43;;;23.30;41.10;;;;;;5014829;28;20470;-84
2023/05/28 08:32:54;;;;;;;6.67;3.67;;;23.40;40.90;;;;;;5012736;28;20462;-83
2023/05/28 08:35:25;;;;;;;8.50;3.50;;;23.40;39.80;;;;;;5027933;28;21149;-84
2023/05/28 08:37:52;;;;;;;6.73;4.20;;;23.60;38.40;;;;;;5013173;28;20903;-84
2023/05/28 08:40:49;;;;;;;6.70;3.97;;;23.20;39.30;;;;;;5016962;28;20446;-84
2023/05/28 08:43:16;;;;;;;6.00;4.30;;;23.40;40.70;;;;;;4998049;28;20458;-84
2023/05/28 08:45:43;;;;;;;7.10;3.50;;;23.60;40.30;;;;;;4995780;28;21082;-84
2023/05/28 08:48:12;;;;;;;10.90;4.10;;;23.90;39.90;;;;;;5009415;28;20449;-85
2023/05/28 08:50:46;;;;;;;6.63;3.73;;;23.80;41.10;;;;;;5034805;28;20451;-86
2023/05/28 08:53:21;;;;;;;5.63;3.60;;;24.10;38.50;;;;;;5009843;28;20533;-82
2023/05/28 08:55:48;;;;;;;5.20;3.90;;;24.30;38.60;;;;;;4996041;28;20446;-84
2023/05/28 08:58:19;;;;;;;5.60;3.73;;;24.50;38.40;;;;;;5014312;28;20481;-85
2023/05/28 09:00:48;;;;;;;5.63;3.57;;;24.30;38.00;;;;;;5037667;28;20548;-84
2023/05/28 09:03:30;;;;;;;7.80;3.70;;;24.00;38.00;;;;;;5022154;28;20453;-86
2023/05/28 09:06:07;;;;;;;6.50;3.67;;;24.40;39.10;;;;;;5022727;28;20500;-84
2023/05/28 09:08:34;;;;;;;10.50;4.40;;;24.60;39.00;;;;;;5014739;28;20449;-84
2023/05/28 09:11:10;;;;;;;5.70;3.60;;;24.80;37.50;;;;;;4994180;28;20538;-85
2023/05/28 09:13:41;;;;;;;7.73;3.87;;;24.80;37.70;;;;;;5011998;28;20576;-86
2023/05/28 09:16:08;;;;;;;6.73;3.87;;;24.60;38.20;;;;;;5003332;28;20527;-84
2023/05/28 09:18:36;;;;;;;6.90;4.70;;;24.90;37.90;;;;;;5003002;28;22065;-84
2023/05/28 09:21:10;;;;;;;7.60;3.87;;;25.10;36.60;;;;;;5040029;28;20446;-85
2023/05/28 09:23:39;;;;;;;8.03;3.97;;;25.20;37.20;;;;;;5013722;28;20480;-84
2023/05/28 09:26:27;;;;;;;8.00;4.10;;;25.00;36.40;;;;;;5013377;28;20452;-84
2023/05/28 09:28:58;;;;;;;5.50;3.30;;;25.00;37.10;;;;;;5031452;28;20443;-85
2023/05/28 09:31:29;;;;;;;8.70;4.60;;;25.40;37.50;;;;;;5016443;28;20461;-86
2023/05/28 09:33:56;;;;;;;7.47;4.00;;;26.00;34.90;;;;;;5026933;28;20474;-85
2023/05/28 09:36:25;;;;;;;8.30;4.13;;;25.80;34.10;;;;;;4996329;28;21476;-88
2023/05/28 09:38:52;;;;;;;8.70;4.00;;;25.90;35.20;;;;;;5005072;28;20438;-85
2023/05/28 09:41:20;;;;;;;6.80;3.87;;;26.30;34.20;;;;;;5006037;28;20449;-84
2023/05/28 09:43:47;;;;;;;4.93;3.73;;;26.40;34.20;;;;;;5013590;28;20474;-84
2023/05/28 09:46:14;;;;;;;11.37;4.23;;;26.40;33.10;;;;;;4999676;28;20460;-84
2023/05/28 09:48:41;;;;;;;5.73;3.50;;;26.70;33.90;;;;;;5012923;28;20482;-85
2023/05/28 09:51:10;;;;;;;10.73;3.40;;;27.00;31.40;;;;;;5015523;28;20457;-85
2023/05/28 09:53:44;;;;;;;6.07;3.97;;;27.00;33.90;;;;;;5030247;28;22245;-84
2023/05/28 09:56:12;;;;;;;4.97;3.80;;;27.20;33.90;;;;;;5017026;28;20441;-85
2023/05/28 09:58:45;;;;;;;10.93;4.63;;;27.70;33.70;;;;;;5021533;28;20807;-85
2023/05/28 10:01:15;;;;;;;6.40;4.17;;;27.80;30.70;;;;;;5029222;28;20464;-85
2023/05/28 10:03:45;;;;;;;5.87;3.60;;;27.70;30.70;;;;;;5018140;28;20446;-85
2023/05/28 10:06:16;;;;;;;7.20;3.63;;;27.60;31.20;;;;;;5015391;28;20438;-87
2023/05/28 10:08:49;;;;;;;10.30;3.73;;;27.90;31.60;;;;;;5029166;28;21439;-85
2023/05/28 10:11:19;;;;;;;6.70;3.67;;;28.40;31.50;;;;;;5005483;28;21131;-85
2023/05/28 10:13:47;;;;;;;10.23;4.30;;;28.50;30.70;;;;;;5034375;28;20532;-85
2023/05/28 10:16:14;;;;;;;9.90;3.83;;;28.80;30.50;;;;;;5008844;28;20449;-85
2023/05/28 10:18:43;;;;;;;6.20;3.67;;;29.00;30.00;;;;;;5030105;28;20481;-85
2023/05/28 10:21:11;;;;;;;8.70;4.00;;;28.90;28.90;;;;;;5020967;28;20457;-84
2023/05/28 10:23:38;;;;;;;6.00;3.63;;;28.70;29.50;;;;;;5022105;28;20485;-85
2023/05/28 10:26:07;;;;;;;6.80;3.83;;;28.60;29.50;;;;;;5031618;28;20572;-87
2023/05/28 10:28:34;;;;;;;6.57;3.67;;;28.50;29.50;;;;;;5025132;28;20438;-86
2023/05/28 10:31:04;;;;;;;9.00;4.80;;;28.30;30.00;;;;;;5026480;28;20435;-87
2023/05/28 10:33:31;;;;;;;5.70;4.40;;;28.30;30.00;;;;;;5032247;28;20438;-85
2023/05/28 10:36:00;;;;;;;8.03;3.83;;;28.60;30.60;;;;;;5035056;28;20449;-85
2023/05/28 10:38:29;;;;;;;8.53;3.40;;;28.70;29.90;;;;;;5004965;28;20501;-85
2023/05/28 10:41:01;;;;;;;7.93;4.07;;;28.80;29.80;;;;;;5018214;28;20463;-85
2023/05/28 10:43:46;;;;;;;7.73;3.90;;;29.10;31.80;;;;;;5036426;28;20499;-85
2023/05/28 10:46:16;;;;;;;7.03;4.30;;;29.50;30.40;;;;;;5019943;28;20454;-85
2023/05/28 10:49:07;;;;;;;5.57;3.40;;;29.40;29.90;;;;;;5038907;28;20532;-84
2023/05/28 10:52:00;;;;;;;8.97;3.97;;;29.70;29.40;;;;;;5018026;28;20504;-86
2023/05/28 10:54:45;;;;;;;6.83;4.00;;;29.70;28.70;;;;;;5021462;28;20462;-86
2023/05/28 10:57:13;;;;;;;6.83;4.00;;;29.70;28.70;;;;;;5024068;28;20844;-85
2023/05/28 10:59:46;;;;;;;8.43;4.50;;;29.80;28.60;;;;;;5004877;28;20450;-87
2023/05/28 11:02:16;;;;;;;10.37;4.10;;;29.70;28.00;;;;;;5048301;28;20466;-85
2023/05/28 11:04:43;;;;;;;5.47;3.53;;;29.80;27.90;;;;;;5003266;28;20994;-85
2023/05/28 11:07:12;;;;;;;7.90;5.17;;;30.10;28.00;;;;;;5030995;28;20434;-84
2023/05/28 11:09:40;;;;;;;4.67;3.87;;;30.30;27.70;;;;;;5006654;28;20968;-85
2023/05/28 11:12:08;;;;;;;8.70;4.03;;;30.70;27.00;;;;;;5024552;28;20460;-86
2023/05/28 11:14:36;;;;;;;9.07;3.50;;;30.50;25.90;;;;;;5000317;28;20466;-85
2023/05/28 11:17:08;;;;;;;8.27;3.43;;;30.40;26.30;;;;;;5015403;28;20519;-88
2023/05/28 11:19:43;;;;;;;7.70;3.77;;;30.40;27.00;;;;;;5019524;28;20876;-86
2023/05/28 11:22:10;;;;;;;7.03;3.80;;;30.60;27.50;;;;;;5013977;28;20445;-86
2023/05/28 11:24:58;;;;;;;5.47;3.33;;;30.80;27.40;;;;;;5006430;28;20474;-87
2023/05/28 11:27:26;;;;;;;5.80;3.70;;;31.00;28.00;;;;;;5032080;28;20457;-85
2023/05/28 11:29:55;;;;;;;6.30;3.93;;;30.60;26.40;;;;;;5002847;28;20477;-85
2023/05/28 11:32:23;;;;;;;9.43;3.93;;;30.20;27.00;;;;;;5024211;28;20826;-84
2023/05/28 11:34:52;;;;;;;6.20;3.90;;;30.40;27.00;;;;;;4998312;28;20478;-85
2023/05/28 11:37:25;;;;;;;10.07;4.90;;;30.60;26.80;;;;;;5031059;28;20453;-85
2023/05/28 11:39:53;;;;;;;6.33;3.40;;;30.70;26.50;;;;;;5005693;28;20976;-86
2023/05/28 11:42:21;;;;;;;5.17;3.93;;;30.30;27.00;;;;;;5006827;28;20457;-86
2023/05/28 11:44:49;;;;;;;7.53;4.17;;;30.10;26.40;;;;;;5020969;28;20694;-89
2023/05/28 11:47:17;;;;;;;9.23;4.40;;;30.00;26.70;;;;;;5041916;28;20442;-86
2023/05/28 11:49:46;;;;;;;10.40;4.70;;;29.50;25.70;;;;;;5030171;28;20454;-84
2023/05/28 11:52:13;;;;;;;9.37;4.10;;;29.60;26.10;;;;;;5021051;28;20454;-85
2023/05/28 11:54:41;;;;;;;7.93;3.70;;;29.90;27.30;;;;;;5017451;28;20461;-88
2023/05/28 11:57:09;;;;;;;9.03;4.40;;;29.70;25.60;;;;;;5024954;28;20986;-88
2023/05/28 11:59:37;;;;;;;5.17;4.07;;;29.60;26.20;;;;;;5031405;28;21193;-85
2023/05/28 12:02:14;;;;;;;8.00;4.37;;;29.50;26.20;;;;;;5008909;28;20455;-85
2023/05/28 12:04:56;;;;;;;7.70;4.33;;;29.70;26.70;;;;;;5028056;28;20465;-86
2023/05/28 12:07:23;;;;;;;4.27;3.30;;;29.50;26.20;;;;;;5022954;28;20436;-87
2023/05/28 12:10:01;;;;;;;10.10;4.17;;;29.60;27.40;;;;;;5022201;28;20465;-85
2023/05/28 12:12:30;;;;;;;10.40;3.80;;;30.10;26.70;;;;;;5022916;28;20460;-85
2023/05/28 12:14:58;;;;;;;7.20;4.53;;;29.90;26.50;;;;;;4998555;28;20553;-85
2023/05/28 12:17:25;;;;;;;6.03;3.70;;;30.10;26.90;;;;;;5038409;28;20504;-85
2023/05/28 12:19:52;;;;;;;7.00;4.10;;;30.20;26.50;;;;;;5031673;28;20464;-86
2023/05/28 12:22:21;;;;;;;8.47;4.23;;;30.80;25.50;;;;;;5017956;28;20478;-87
2023/05/28 12:24:50;;;;;;;6.70;3.20;;;31.10;25.00;;;;;;5029105;28;20477;-86
2023/05/28 12:27:17;;;;;;;6.83;3.97;;;31.10;25.60;;;;;;5030893;28;20812;-85
2023/05/28 12:29:44;;;;;;;7.37;4.23;;;30.50;24.10;;;;;;5027070;28;20838;-85
2023/05/28 12:32:11;;;;;;;6.80;4.30;;;30.70;23.90;;;;;;4999088;28;20446;-84
2023/05/28 12:34:38;;;;;;;5.90;3.97;;;30.40;24.40;;;;;;5014334;28;20466;-86
2023/05/28 12:37:05;;;;;;;4.47;4.03;;;30.50;25.00;;;;;;5027116;28;21006;-85
2023/05/28 12:39:35;;;;;;;11.10;3.77;;;30.70;24.50;;;;;;5004073;28;20485;-85
2023/05/28 12:42:03;;;;;;;4.80;3.30;;;30.80;24.00;;;;;;5022144;28;20948;-86
2023/05/28 12:44:30;;;;;;;5.87;3.70;;;30.40;23.90;;;;;;5014648;28;21308;-87
2023/05/28 12:46:57;;;;;;;5.90;3.57;;;30.40;23.50;;;;;;5021684;28;20453;-86
2023/05/28 12:49:24;;;;;;;7.63;3.80;;;30.50;23.60;;;;;;5015090;28;20891;-85
2023/05/28 12:51:50;;;;;;;7.73;4.13;;;30.90;23.60;;;;;;5015581;28;20956;-88
2023/05/28 12:54:17;;;;;;;4.57;3.73;;;30.90;24.20;;;;;;5022683;28;20839;-85
2023/05/28 12:56:46;;;;;;;5.27;4.07;;;30.70;23.20;;;;;;5034629;28;20461;-86